createdAt,value
2022-12-01T00:00:56.451Z,30.77
2022-12-01T00:04:00.091Z,31.57
2022-12-01T00:07:03.694Z,32.03
2022-12-01T00:10:29.317Z,31.90
2022-12-01T00:13:35.009Z,31.57
2022-12-01T00:16:40.637Z,33.03
2022-12-01T00:19:44.238Z,33.03
2022-12-01T00:22:49.772Z,32.80
2022-12-01T00:25:53.368Z,30.13
2022-12-01T00:29:00.512Z,33.37
2022-12-01T00:32:04.131Z,30.03
2022-12-01T00:35:09.083Z,34.07
2022-12-01T00:38:12.633Z,31.17
2022-12-01T00:41:16.332Z,31.93
2022-12-01T00:44:21.409Z,32.30
2022-12-01T00:47:25.178Z,32.03
2022-12-01T00:50:28.752Z,31.67
2022-12-01T00:53:32.530Z,32.33
2022-12-01T00:56:36.170Z,32.00
2022-12-01T00:59:41.254Z,32.23
2022-12-01T01:02:45.019Z,32.17
2022-12-01T01:05:48.675Z,32.10
2022-12-01T01:08:52.349Z,34.57
2022-12-01T01:11:56.306Z,35.63
2022-12-01T01:15:01.291Z,35.33
2022-12-01T01:18:05.894Z,37.80
2022-12-01T01:21:14.515Z,37.20
2022-12-01T01:24:18.213Z,38.73
2022-12-01T01:27:21.833Z,37.27
2022-12-01T01:30:26.981Z,36.90
2022-12-01T01:33:31.886Z,37.37
2022-12-01T01:36:35.824Z,37.83
2022-12-01T01:39:39.475Z,37.77
2022-12-01T01:42:43.103Z,38.27
2022-12-01T01:45:48.169Z,38.10
2022-12-01T01:48:56.118Z,38.17
2022-12-01T01:52:00.101Z,39.57
2022-12-01T01:55:04.065Z,37.90
2022-12-01T01:58:12.110Z,36.73
2022-12-01T02:01:17.370Z,39.63
2022-12-01T02:04:22.123Z,38.17
2022-12-01T02:07:26.504Z,38.17
2022-12-01T02:10:46.093Z,38.87
2022-12-01T02:14:05.921Z,39.40
2022-12-01T02:17:27.853Z,37.47
2022-12-01T02:21:25.083Z,38.50
2022-12-01T02:25:11.770Z,38.30
2022-12-01T02:28:54.670Z,39.83
2022-12-01T02:32:12.917Z,39.23
2022-12-01T02:35:27.991Z,38.17
2022-12-01T02:38:42.134Z,39.77
2022-12-01T02:41:53.803Z,37.90
2022-12-01T02:44:59.864Z,38.07
2022-12-01T02:48:12.413Z,39.00
2022-12-01T02:51:21.973Z,40.30
2022-12-01T02:54:29.750Z,39.00
2022-12-01T02:57:33.502Z,38.80
2022-12-01T03:00:37.688Z,40.97
2022-12-01T03:04:12.309Z,40.33
2022-12-01T03:07:47.006Z,38.63
2022-12-01T03:10:56.274Z,40.87
2022-12-01T03:14:16.147Z,40.37
2022-12-01T03:17:36.674Z,39.77
2022-12-01T03:20:53.258Z,40.47
2022-12-01T03:24:03.172Z,41.13
2022-12-01T03:27:09.857Z,42.33
2022-12-01T03:30:16.659Z,40.77
2022-12-01T03:33:31.978Z,42.80
2022-12-01T03:36:43.775Z,40.00
2022-12-01T03:39:49.736Z,42.60
2022-12-01T03:42:59.007Z,41.10
2022-12-01T03:46:11.740Z,40.63
2022-12-01T03:49:18.887Z,42.83
2022-12-01T03:52:38.194Z,43.07
2022-12-01T03:55:47.931Z,42.23
2022-12-01T03:58:58.144Z,42.07
2022-12-01T04:02:01.895Z,41.37
2022-12-01T04:05:06.893Z,43.03
2022-12-01T04:08:11.938Z,42.80
2022-12-01T04:11:33.144Z,44.93
2022-12-01T04:14:36.832Z,42.60
2022-12-01T04:17:43.313Z,42.07
2022-12-01T04:20:47.602Z,41.53
2022-12-01T04:24:01.684Z,44.27
2022-12-01T04:27:05.403Z,42.23
2022-12-01T04:30:11.048Z,44.53
2022-12-01T04:33:14.635Z,42.23
2022-12-01T04:36:18.291Z,44.40
2022-12-01T04:39:23.561Z,43.13
2022-12-01T04:42:27.226Z,41.90
2022-12-01T04:45:30.866Z,43.80
2022-12-01T04:48:35.987Z,44.40
2022-12-01T04:51:39.702Z,41.90
2022-12-01T04:54:44.775Z,45.43
2022-12-01T04:57:48.643Z,42.00
2022-12-01T05:00:52.277Z,44.03
2022-12-01T05:03:56.199Z,44.23
2022-12-01T05:07:00.194Z,43.13
2022-12-01T05:10:05.830Z,43.43
2022-12-01T05:13:10.267Z,43.50
2022-12-01T05:16:16.706Z,45.80
2022-12-01T05:19:37.664Z,45.43
2022-12-01T05:23:04.269Z,43.30
2022-12-01T05:26:09.218Z,44.70
2022-12-01T05:29:13.851Z,43.37
2022-12-01T05:32:17.634Z,42.93
2022-12-01T05:35:21.348Z,43.33
2022-12-01T05:38:25.155Z,44.47
2022-12-01T05:41:30.314Z,42.17
2022-12-01T05:44:33.918Z,43.03
2022-12-01T05:47:37.521Z,42.17
2022-12-01T05:50:41.739Z,43.27
2022-12-01T05:53:46.451Z,42.90
2022-12-01T05:56:51.401Z,42.47
2022-12-01T06:00:06.897Z,42.63
2022-12-01T06:03:10.502Z,40.33
2022-12-01T06:06:14.626Z,42.77
2022-12-01T06:09:18.389Z,42.47
2022-12-01T06:12:23.485Z,43.23
2022-12-01T06:15:27.853Z,41.27
2022-12-01T06:18:34.004Z,43.27
2022-12-01T06:21:37.727Z,52.78
2022-12-01T06:24:41.532Z,44.60
2022-12-01T06:27:47.066Z,42.90
2022-12-01T06:30:50.717Z,41.57
2022-12-01T06:33:54.475Z,43.50
2022-12-01T06:36:58.106Z,42.43
2022-12-01T06:40:01.745Z,40.40
2022-12-01T06:43:07.485Z,41.33
2022-12-01T06:46:11.231Z,43.43
2022-12-01T06:49:16.247Z,42.63
2022-12-01T06:52:19.929Z,43.77
2022-12-01T06:55:23.661Z,42.83
2022-12-01T06:58:29.119Z,42.57
2022-12-01T07:01:33.105Z,43.17
2022-12-01T07:04:36.727Z,43.37
2022-12-01T07:07:40.994Z,42.33
2022-12-01T07:10:44.902Z,44.20
2022-12-01T07:13:50.995Z,42.47
2022-12-01T07:16:58.058Z,42.43
2022-12-01T07:20:01.930Z,42.10
2022-12-01T07:23:05.607Z,42.80
2022-12-01T07:26:12.683Z,42.87
2022-12-01T07:29:17.841Z,42.77
2022-12-01T07:32:21.433Z,41.23
2022-12-01T07:35:25.140Z,43.67
2022-12-01T07:38:30.360Z,42.70
2022-12-01T07:41:33.942Z,41.87
2022-12-01T07:44:38.927Z,42.07
2022-12-01T07:47:42.587Z,42.03
2022-12-01T07:50:46.208Z,40.17
2022-12-01T07:53:51.640Z,43.57
2022-12-01T07:56:55.615Z,42.00
2022-12-01T08:00:00.610Z,41.73
2022-12-01T08:03:04.291Z,40.93
2022-12-01T08:06:09.569Z,42.07
2022-12-01T08:09:13.612Z,41.83
2022-12-01T08:12:17.291Z,41.90
2022-12-01T08:15:22.392Z,41.50
2022-12-01T08:18:26.356Z,41.83
2022-12-01T08:21:30.138Z,41.83
2022-12-01T08:24:33.901Z,41.70
2022-12-01T08:27:37.906Z,39.40
2022-12-01T08:30:42.927Z,41.37
2022-12-01T08:33:47.170Z,38.73
2022-12-01T08:36:50.850Z,40.60
2022-12-01T08:39:54.445Z,39.43
2022-12-01T08:42:58.918Z,39.47
2022-12-01T08:46:20.821Z,40.40
2022-12-01T08:49:24.664Z,39.47
2022-12-01T08:52:34.126Z,40.67
2022-12-01T08:55:38.193Z,41.10
2022-12-01T08:58:41.935Z,42.47
2022-12-01T09:01:57.476Z,42.63
2022-12-01T09:05:01.398Z,41.83
2022-12-01T09:08:22.717Z,40.40
2022-12-01T09:11:26.488Z,40.20
2022-12-01T09:14:30.250Z,40.97
2022-12-01T09:17:35.232Z,40.80
2022-12-01T09:20:38.900Z,38.13
2022-12-01T09:23:42.918Z,36.83
2022-12-01T09:26:46.623Z,36.63
2022-12-01T09:29:50.553Z,37.00
2022-12-01T09:32:55.740Z,38.00
2022-12-01T09:36:00.908Z,36.50
2022-12-01T09:39:05.992Z,37.53
2022-12-01T09:42:16.189Z,36.40
2022-12-01T09:45:27.996Z,39.70
2022-12-01T09:48:42.545Z,37.93
2022-12-01T09:51:46.656Z,38.20
2022-12-01T09:54:50.908Z,35.90
2022-12-01T09:57:57.913Z,36.40
2022-12-01T10:01:01.883Z,37.90
2022-12-01T10:04:16.114Z,36.90
2022-12-01T10:07:26.596Z,37.00
2022-12-01T10:10:37.082Z,37.47
2022-12-01T10:13:43.660Z,39.57
2022-12-01T10:17:01.898Z,36.90
2022-12-01T10:20:17.929Z,35.80
2022-12-01T10:23:39.961Z,36.70
2022-12-01T10:26:54.864Z,37.90
2022-12-01T10:30:08.166Z,35.83
2022-12-01T10:33:24.286Z,34.07
2022-12-01T10:36:33.009Z,34.43
2022-12-01T10:39:42.015Z,34.53
2022-12-01T10:42:48.006Z,33.27
2022-12-01T10:45:52.303Z,32.73
2022-12-01T10:48:59.471Z,32.97
2022-12-01T10:52:04.610Z,31.97
2022-12-01T10:55:27.998Z,33.40
2022-12-01T10:58:35.320Z,34.53
2022-12-01T11:01:39.215Z,31.77
2022-12-01T11:04:51.905Z,33.60
2022-12-01T11:07:57.398Z,30.87
2022-12-01T11:11:01.151Z,32.30
2022-12-01T11:14:17.916Z,32.27
2022-12-01T11:17:38.270Z,33.70
2022-12-01T11:20:42.844Z,32.70
2022-12-01T11:23:50.553Z,34.80
2022-12-01T11:26:54.559Z,35.70
2022-12-01T11:30:04.876Z,35.50
2022-12-01T11:33:08.691Z,31.53
2022-12-01T11:36:22.094Z,33.53
2022-12-01T11:39:32.464Z,33.57
2022-12-01T11:42:37.760Z,33.13
2022-12-01T11:45:42.523Z,32.87
2022-12-01T11:49:00.406Z,31.70
2022-12-01T11:52:23.836Z,32.50
2022-12-01T11:55:31.946Z,32.53
2022-12-01T11:58:35.626Z,32.23
2022-12-01T12:01:58.548Z,33.70
2022-12-01T12:05:57.645Z,32.20
2022-12-01T12:09:47.503Z,32.03
2022-12-01T12:13:10.555Z,29.87
2022-12-01T12:16:33.742Z,29.80
2022-12-01T12:20:08.619Z,27.70
2022-12-01T12:23:33.121Z,31.60
2022-12-01T12:26:45.927Z,29.03
2022-12-01T12:30:18.963Z,27.93
2022-12-01T12:33:50.600Z,29.90
2022-12-01T12:37:11.162Z,29.37
2022-12-01T12:40:42.246Z,29.90
2022-12-01T12:43:58.794Z,28.60
2022-12-01T12:47:23.596Z,30.43
2022-12-01T12:50:35.898Z,29.80
2022-12-01T12:53:50.275Z,29.80
2022-12-01T12:57:01.894Z,29.30
2022-12-01T13:00:15.560Z,29.73
2022-12-01T13:03:33.786Z,29.00
2022-12-01T13:06:44.881Z,27.53
2022-12-01T13:09:55.350Z,30.20
2022-12-01T13:13:13.955Z,29.47
2022-12-01T13:16:24.274Z,27.07
2022-12-01T13:19:34.824Z,29.80
2022-12-01T13:22:39.172Z,27.90
2022-12-01T13:25:45.487Z,29.17
2022-12-01T13:28:55.655Z,29.80
2022-12-01T13:31:59.724Z,30.77
2022-12-01T13:35:22.016Z,30.80
2022-12-01T13:38:31.162Z,30.20
2022-12-01T13:41:38.608Z,30.67
2022-12-01T13:44:45.949Z,31.13
2022-12-01T13:47:55.903Z,32.03
2022-12-01T13:51:03.954Z,31.90
2022-12-01T13:54:31.616Z,31.07
2022-12-01T13:57:38.238Z,38.87
2022-12-01T14:00:43.188Z,34.77
2022-12-01T14:03:57.071Z,32.87
2022-12-01T14:07:35.645Z,32.60
2022-12-01T14:10:39.711Z,30.53
2022-12-01T14:13:54.759Z,29.20
2022-12-01T14:17:02.639Z,29.40
2022-12-01T14:20:23.049Z,30.13
2022-12-01T14:23:33.349Z,31.37
2022-12-01T14:26:46.533Z,30.27
2022-12-01T14:29:50.171Z,30.07
2022-12-01T14:33:14.001Z,36.43
2022-12-01T14:36:38.052Z,30.97
2022-12-01T14:39:47.557Z,28.90
2022-12-01T14:43:13.781Z,26.40
2022-12-01T14:46:25.676Z,26.07
2022-12-01T14:49:36.351Z,25.33
2022-12-01T14:52:44.585Z,26.53
2022-12-01T14:55:56.410Z,24.83
2022-12-01T14:59:02.799Z,27.57
2022-12-01T15:02:12.312Z,29.47
2022-12-01T15:05:20.030Z,26.63
2022-12-01T15:08:41.953Z,23.90
2022-12-01T15:11:56.973Z,25.73
2022-12-01T15:15:01.000Z,23.97
2022-12-01T15:18:24.243Z,25.83
2022-12-01T15:21:31.785Z,23.07
2022-12-01T15:24:35.818Z,25.23
2022-12-01T15:27:41.053Z,25.20
2022-12-01T15:30:49.627Z,26.60
2022-12-01T15:33:55.522Z,24.80
2022-12-01T15:37:01.114Z,26.67
2022-12-01T15:43:41.319Z,24.53
2022-12-01T15:46:45.604Z,25.27
2022-12-01T15:49:50.778Z,28.17
2022-12-01T15:52:54.486Z,27.30
2022-12-01T15:55:59.835Z,30.77
2022-12-01T15:59:28.494Z,29.37
2022-12-01T16:02:34.593Z,29.60
2022-12-01T16:05:38.565Z,32.27
2022-12-01T16:08:42.444Z,30.17
2022-12-01T16:12:25.150Z,27.70
2022-12-01T16:15:30.164Z,26.53
2022-12-01T16:18:35.334Z,27.00
2022-12-01T16:21:47.985Z,25.90
2022-12-01T16:24:55.950Z,24.70
2022-12-01T16:27:59.922Z,24.73
2022-12-01T16:31:09.136Z,23.60
2022-12-01T16:34:44.519Z,23.67
2022-12-01T16:37:44.218Z,25.43
2022-12-01T16:40:49.938Z,23.67
2022-12-01T16:44:20.341Z,24.17
2022-12-01T16:47:21.946Z,22.60
2022-12-01T16:50:25.608Z,22.03
2022-12-01T16:53:29.250Z,26.23
2022-12-01T16:56:32.956Z,23.57
2022-12-01T16:59:36.589Z,22.93
2022-12-01T17:02:41.630Z,22.03
2022-12-01T17:05:45.299Z,25.83
2022-12-01T17:08:50.320Z,22.00
2022-12-01T17:11:56.269Z,20.50
2022-12-01T17:14:59.879Z,19.10
2022-12-01T17:18:05.057Z,19.90
2022-12-01T17:21:11.135Z,18.63
2022-12-01T17:24:18.822Z,19.97
2022-12-01T17:27:23.239Z,19.73
2022-12-01T17:30:27.340Z,20.67
2022-12-01T17:33:34.693Z,18.43
2022-12-01T17:36:38.589Z,18.57
2022-12-01T17:39:42.347Z,18.57
2022-12-01T17:42:50.469Z,16.83
2022-12-01T17:45:54.603Z,17.90
2022-12-01T17:48:59.923Z,16.23
2022-12-01T17:52:03.689Z,17.50
2022-12-01T17:55:08.903Z,17.53
2022-12-01T17:58:12.658Z,15.40
2022-12-01T18:01:21.390Z,15.97
2022-12-01T18:04:29.282Z,15.30
2022-12-01T18:07:33.020Z,15.93
2022-12-01T18:10:36.684Z,15.07
2022-12-01T18:13:42.442Z,15.80
2022-12-01T18:16:47.015Z,16.43
2022-12-01T18:19:52.084Z,15.60
2022-12-01T18:22:55.749Z,15.17
2022-12-01T18:26:05.130Z,16.20
2022-12-01T18:29:16.109Z,15.67
2022-12-01T18:32:19.790Z,13.73
2022-12-01T18:35:30.249Z,12.43
2022-12-01T18:38:35.287Z,12.70
2022-12-01T18:41:39.270Z,12.87
2022-12-01T18:44:43.186Z,12.30
2022-12-01T18:47:46.866Z,12.20
2022-12-01T18:50:57.885Z,11.70
2022-12-01T18:54:05.923Z,11.47
2022-12-01T18:57:09.682Z,10.60
2022-12-01T19:00:15.529Z,10.53
2022-12-01T19:03:22.221Z,11.40
2022-12-01T19:06:38.949Z,11.23
2022-12-01T19:09:42.894Z,11.20
2022-12-01T19:12:49.400Z,11.17
2022-12-01T19:15:53.468Z,13.37
2022-12-01T19:18:57.351Z,13.03
2022-12-01T19:22:02.629Z,11.37
2022-12-01T19:25:08.033Z,10.57
2022-12-01T19:28:11.638Z,13.10
2022-12-01T19:31:17.766Z,23.27
2022-12-01T19:34:21.663Z,16.07
2022-12-01T19:37:26.850Z,23.77
2022-12-01T19:40:30.927Z,16.80
2022-12-01T19:43:36.090Z,17.33
2022-12-01T19:46:39.855Z,19.53
2022-12-01T19:49:44.363Z,13.50
2022-12-01T19:52:51.800Z,11.73
2022-12-01T19:56:03.234Z,13.27
2022-12-01T19:59:08.035Z,14.90
2022-12-01T20:02:12.639Z,14.10
2022-12-01T20:05:16.887Z,14.57
2022-12-01T20:08:21.942Z,15.27
2022-12-01T20:11:26.394Z,15.13
2022-12-01T20:14:30.268Z,14.67
2022-12-01T20:17:37.364Z,15.90
2022-12-01T20:20:40.994Z,14.07
2022-12-01T20:23:48.566Z,16.03
2022-12-01T20:26:56.729Z,14.37
2022-12-01T20:30:00.506Z,15.73
2022-12-01T20:33:04.523Z,15.20
2022-12-01T20:36:09.586Z,15.17
2022-12-01T20:39:16.264Z,16.70
2022-12-01T20:42:22.291Z,17.53
2022-12-01T20:45:46.204Z,16.77
2022-12-01T20:48:50.136Z,17.73
2022-12-01T20:51:53.923Z,17.87
2022-12-01T20:54:58.984Z,18.60
2022-12-01T20:58:02.978Z,18.70
2022-12-01T21:01:11.232Z,20.30
2022-12-01T21:04:15.225Z,19.83
2022-12-01T21:07:19.921Z,20.87
2022-12-01T21:10:25.675Z,18.57
2022-12-01T21:13:42.361Z,47.73
2022-12-01T21:16:49.530Z,23.63
2022-12-01T21:20:01.850Z,19.50
2022-12-01T21:23:13.058Z,18.93
2022-12-01T21:26:19.117Z,25.17
2022-12-01T21:29:25.959Z,18.33
2022-12-01T21:32:37.709Z,19.50
2022-12-01T21:35:44.415Z,17.10
2022-12-01T21:38:50.694Z,19.37
2022-12-01T21:42:00.982Z,19.17
2022-12-01T21:45:18.830Z,18.53
2022-12-01T21:48:24.193Z,19.27
2022-12-01T21:51:28.009Z,18.90
2022-12-01T21:54:32.416Z,19.83
2022-12-01T21:57:44.816Z,20.23
2022-12-01T22:00:48.897Z,20.50
2022-12-01T22:03:54.177Z,19.97
2022-12-01T22:07:00.946Z,19.63
2022-12-01T22:10:55.304Z,20.40
2022-12-01T22:14:14.057Z,20.80
2022-12-01T22:17:22.002Z,21.40
2022-12-01T22:20:25.853Z,22.67
2022-12-01T22:23:34.813Z,20.70
2022-12-01T22:26:41.134Z,20.93
2022-12-01T22:29:49.128Z,21.90
2022-12-01T22:32:58.143Z,22.93
2022-12-01T22:36:02.095Z,21.50
2022-12-01T22:39:26.930Z,22.00
2022-12-01T22:42:35.978Z,23.43
2022-12-01T22:45:41.114Z,20.80
2022-12-01T22:48:47.811Z,21.00
2022-12-01T22:51:53.974Z,19.93
2022-12-01T22:54:57.713Z,21.57
2022-12-01T22:58:02.050Z,20.30
2022-12-01T23:01:23.619Z,20.97
2022-12-01T23:04:31.282Z,20.50
2022-12-01T23:07:37.493Z,21.50
2022-12-01T23:10:42.824Z,21.37
2022-12-01T23:13:46.374Z,20.23
2022-12-01T23:16:57.687Z,22.50
2022-12-01T23:20:27.021Z,22.53
2022-12-01T23:23:33.484Z,21.17
2022-12-01T23:26:37.245Z,23.50
2022-12-01T23:29:40.999Z,22.83
2022-12-01T23:32:49.224Z,24.67
2022-12-01T23:35:57.233Z,23.33
2022-12-01T23:39:08.007Z,24.67
2022-12-01T23:42:14.241Z,23.27
2022-12-01T23:45:22.725Z,23.10
2022-12-01T23:48:36.035Z,25.20
2022-12-01T23:51:45.427Z,24.17
2022-12-01T23:54:49.897Z,24.83
2022-12-01T23:57:55.326Z,22.93
